sensor_id;sensor_type;location;lat;lon;timestamp;pressure;altitude;pressure_sealevel;temperature;humidity
9822;BME280;4950;46.042;14.472;2023-08-06T00:02:05;96950.69;;;16.78;100.00
9822;BME280;4950;46.042;14.472;2023-08-06T00:04:32;96936.09;;;16.83;100.00
9822;BME280;4950;46.042;14.472;2023-08-06T00:07:00;96931.75;;;16.88;100.00
9822;BME280;4950;46.042;14.472;2023-08-06T00:09:27;96928.09;;;16.89;100.00
9822;BME280;4950;46.042;14.472;2023-08-06T00:11:54;96923.09;;;16.88;100.00
9822;BME280;4950;46.042;14.472;2023-08-06T00:14:20;96926.28;;;16.90;100.00
9822;BME280;4950;46.042;14.472;2023-08-06T00:16:47;96920.25;;;16.89;100.00
9822;BME280;4950;46.042;14.472;2023-08-06T00:19:14;96912.38;;;16.89;100.00
9822;BME280;4950;46.042;14.472;2023-08-06T00:21:41;96909.50;;;16.91;100.00
9822;BME280;4950;46.042;14.472;2023-08-06T00:24:09;96904.03;;;16.92;100.00
9822;BME280;4950;46.042;14.472;2023-08-06T00:26:36;96900.63;;;16.92;100.00
9822;BME280;4950;46.042;14.472;2023-08-06T00:29:02;96894.09;;;16.94;100.00
9822;BME280;4950;46.042;14.472;2023-08-06T00:31:29;96900.13;;;16.95;100.00
9822;BME280;4950;46.042;14.472;2023-08-06T00:33:56;96896.25;;;16.97;100.00
9822;BME280;4950;46.042;14.472;2023-08-06T00:36:23;96904.09;;;16.97;100.00
9822;BME280;4950;46.042;14.472;2023-08-06T00:38:49;96902.50;;;16.96;100.00
9822;BME280;4950;46.042;14.472;2023-08-06T00:41:18;96905.22;;;17.02;99.86
9822;BME280;4950;46.042;14.472;2023-08-06T00:43:45;96903.69;;;17.06;99.87
9822;BME280;4950;46.042;14.472;2023-08-06T00:46:12;96905.84;;;17.09;99.65
9822;BME280;4950;46.042;14.472;2023-08-06T00:48:39;96911.09;;;17.09;99.71
9822;BME280;4950;46.042;14.472;2023-08-06T00:51:06;96905.03;;;17.08;99.28
9822;BME280;4950;46.042;14.472;2023-08-06T00:53:34;96911.81;;;17.04;99.47
9822;BME280;4950;46.042;14.472;2023-08-06T00:56:01;96912.03;;;17.03;99.36
9822;BME280;4950;46.042;14.472;2023-08-06T00:58:30;96894.63;;;16.96;99.64
9822;BME280;4950;46.042;14.472;2023-08-06T01:00:57;96902.28;;;16.98;99.61
9822;BME280;4950;46.042;14.472;2023-08-06T01:03:24;96900.75;;;17.02;99.46
9822;BME280;4950;46.042;14.472;2023-08-06T01:05:51;96896.63;;;17.06;98.91
9822;BME280;4950;46.042;14.472;2023-08-06T01:08:28;96898.00;;;17.09;98.44
9822;BME280;4950;46.042;14.472;2023-08-06T01:11:05;96894.00;;;17.06;97.77
9822;BME280;4950;46.042;14.472;2023-08-06T01:13:42;96891.13;;;17.08;97.45
9822;BME280;4950;46.042;14.472;2023-08-06T01:16:15;96892.66;;;17.04;97.75
9822;BME280;4950;46.042;14.472;2023-08-06T01:18:42;96891.56;;;17.00;98.07
9822;BME280;4950;46.042;14.472;2023-08-06T01:21:13;96894.72;;;17.02;98.65
9822;BME280;4950;46.042;14.472;2023-08-06T01:23:40;96887.66;;;17.02;98.44
9822;BME280;4950;46.042;14.472;2023-08-06T01:26:12;96890.03;;;17.04;98.13
9822;BME280;4950;46.042;14.472;2023-08-06T01:28:46;96887.19;;;17.05;98.04
9822;BME280;4950;46.042;14.472;2023-08-06T01:31:22;96886.69;;;17.08;97.74
9822;BME280;4950;46.042;14.472;2023-08-06T01:33:50;96887.78;;;17.12;97.34
9822;BME280;4950;46.042;14.472;2023-08-06T01:36:21;96891.13;;;17.08;97.19
9822;BME280;4950;46.042;14.472;2023-08-06T01:38:48;96885.03;;;17.02;97.70
9822;BME280;4950;46.042;14.472;2023-08-06T01:41:15;96879.00;;;17.02;97.81
9822;BME280;4950;46.042;14.472;2023-08-06T01:43:42;96879.78;;;17.02;98.04
9822;BME280;4950;46.042;14.472;2023-08-06T01:46:09;96879.78;;;17.02;97.80
9822;BME280;4950;46.042;14.472;2023-08-06T01:48:35;96873.75;;;17.02;97.87
9822;BME280;4950;46.042;14.472;2023-08-06T01:51:04;96869.78;;;16.99;97.53
9822;BME280;4950;46.042;14.472;2023-08-06T01:53:32;96865.66;;;17.03;97.90
9822;BME280;4950;46.042;14.472;2023-08-06T01:55:59;96859.13;;;17.06;97.39
9822;BME280;4950;46.042;14.472;2023-08-06T01:58:26;96858.06;;;17.07;97.45
9822;BME280;4950;46.042;14.472;2023-08-06T02:00:52;96867.31;;;17.09;97.30
9822;BME280;4950;46.042;14.472;2023-08-06T02:03:19;96863.41;;;17.12;97.61
9822;BME280;4950;46.042;14.472;2023-08-06T02:05:46;96862.63;;;17.11;97.37
9822;BME280;4950;46.042;14.472;2023-08-06T02:08:13;96869.69;;;17.11;97.37
9822;BME280;4950;46.042;14.472;2023-08-06T02:10:41;96865.00;;;17.13;97.29
9822;BME280;4950;46.042;14.472;2023-08-06T02:13:08;96870.47;;;17.11;97.33
9822;BME280;4950;46.042;14.472;2023-08-06T02:15:35;96871.44;;;17.05;97.32
9822;BME280;4950;46.042;14.472;2023-08-06T02:18:01;96866.66;;;17.02;97.42
9822;BME280;4950;46.042;14.472;2023-08-06T02:20:28;96862.22;;;17.03;97.39
9822;BME280;4950;46.042;14.472;2023-08-06T02:22:55;96879.00;;;17.02;97.58
9822;BME280;4950;46.042;14.472;2023-08-06T02:25:22;96878.91;;;16.96;97.60
9822;BME280;4950;46.042;14.472;2023-08-06T02:27:50;96872.31;;;16.94;98.01
9822;BME280;4950;46.042;14.472;2023-08-06T02:30:17;96877.06;;;16.97;97.84
9822;BME280;4950;46.042;14.472;2023-08-06T02:32:44;96866.34;;;16.98;97.88
9822;BME280;4950;46.042;14.472;2023-08-06T02:35:10;96860.88;;;17.00;97.73
9822;BME280;4950;46.042;14.472;2023-08-06T02:37:37;96863.72;;;16.98;97.70
9822;BME280;4950;46.042;14.472;2023-08-06T02:40:05;96857.38;;;16.94;97.56
9822;BME280;4950;46.042;14.472;2023-08-06T02:42:32;96859.94;;;16.89;97.58
9822;BME280;4950;46.042;14.472;2023-08-06T02:45:00;96861.44;;;16.85;97.75
9822;BME280;4950;46.042;14.472;2023-08-06T02:47:27;96856.50;;;16.89;97.97
9822;BME280;4950;46.042;14.472;2023-08-06T02:49:53;96854.22;;;16.92;97.67
9822;BME280;4950;46.042;14.472;2023-08-06T02:52:20;96856.78;;;16.87;96.90
9822;BME280;4950;46.042;14.472;2023-08-06T02:54:47;96856.50;;;16.89;97.78
9822;BME280;4950;46.042;14.472;2023-08-06T02:57:13;96857.16;;;16.96;97.83
9822;BME280;4950;46.042;14.472;2023-08-06T02:59:40;96853.47;;;16.97;97.33
9822;BME280;4950;46.042;14.472;2023-08-06T03:02:08;96853.97;;;16.94;97.36
9822;BME280;4950;46.042;14.472;2023-08-06T03:04:35;96851.34;;;16.94;97.39
9822;BME280;4950;46.042;14.472;2023-08-06T03:07:02;96851.91;;;16.96;97.00
9822;BME280;4950;46.042;14.472;2023-08-06T03:09:29;96854.28;;;16.97;97.23
9822;BME280;4950;46.042;14.472;2023-08-06T03:11:56;96851.16;;;17.01;96.96
9822;BME280;4950;46.042;14.472;2023-08-06T03:14:22;96852.00;;;17.01;97.15
9822;BME280;4950;46.042;14.472;2023-08-06T03:16:49;96846.19;;;16.99;96.76
9822;BME280;4950;46.042;14.472;2023-08-06T03:19:17;96856.41;;;17.01;96.93
9822;BME280;4950;46.042;14.472;2023-08-06T03:21:44;96862.72;;;17.00;96.95
9822;BME280;4950;46.042;14.472;2023-08-06T03:24:11;96854.84;;;17.00;97.26
9822;BME280;4950;46.042;14.472;2023-08-06T03:26:39;96856.50;;;17.06;97.24
9822;BME280;4950;46.042;14.472;2023-08-06T03:29:06;96857.28;;;17.06;97.06
9822;BME280;4950;46.042;14.472;2023-08-06T03:31:32;96852.78;;;17.02;96.93
9822;BME280;4950;46.042;14.472;2023-08-06T03:33:59;96852.53;;;17.03;97.00
9822;BME280;4950;46.042;14.472;2023-08-06T03:36:27;96852.78;;;17.02;96.93
9822;BME280;4950;46.042;14.472;2023-08-06T03:38:53;96860.09;;;17.00;96.65
9822;BME280;4950;46.042;14.472;2023-08-06T03:41:20;96855.53;;;16.95;97.02
9822;BME280;4950;46.042;14.472;2023-08-06T03:43:47;96854.75;;;16.94;97.53
9822;BME280;4950;46.042;14.472;2023-08-06T03:46:14;96848.50;;;16.95;97.24
9822;BME280;4950;46.042;14.472;2023-08-06T03:48:40;96843.00;;;16.97;97.58
9822;BME280;4950;46.042;14.472;2023-08-06T03:51:07;96840.38;;;16.97;98.14
9822;BME280;4950;46.042;14.472;2023-08-06T03:53:35;96842.69;;;16.93;97.59
9822;BME280;4950;46.042;14.472;2023-08-06T03:56:02;96847.69;;;16.95;97.90
9822;BME280;4950;46.042;14.472;2023-08-06T03:58:29;96841.41;;;16.96;97.82
9822;BME280;4950;46.042;14.472;2023-08-06T04:00:59;96839.59;;;16.96;97.92
9822;BME280;4950;46.042;14.472;2023-08-06T04:03:26;96840.22;;;17.04;97.96
9822;BME280;4950;46.042;14.472;2023-08-06T04:05:54;96837.03;;;17.02;98.20
9822;BME280;4950;46.042;14.472;2023-08-06T04:08:20;96834.97;;;17.04;98.18
9822;BME280;4950;46.042;14.472;2023-08-06T04:10:51;96840.69;;;17.01;98.31
9822;BME280;4950;46.042;14.472;2023-08-06T04:13:19;96840.94;;;16.99;98.39
9822;BME280;4950;46.042;14.472;2023-08-06T04:15:46;96833.88;;;17.00;98.09
9822;BME280;4950;46.042;14.472;2023-08-06T04:18:13;96838.78;;;16.96;98.06
9822;BME280;4950;46.042;14.472;2023-08-06T04:20:43;96839.81;;;16.95;98.28
9822;BME280;4950;46.042;14.472;2023-08-06T04:23:10;96847.44;;;16.96;98.63
9822;BME280;4950;46.042;14.472;2023-08-06T04:25:37;96849.28;;;16.96;98.46
9822;BME280;4950;46.042;14.472;2023-08-06T04:28:06;96843.25;;;16.95;98.63
9822;BME280;4950;46.042;14.472;2023-08-06T04:30:33;96846.91;;;16.94;98.58
9822;BME280;4950;46.042;14.472;2023-08-06T04:33:00;96851.59;;;16.92;98.35
9822;BME280;4950;46.042;14.472;2023-08-06T04:35:27;96855.72;;;16.88;98.82
9822;BME280;4950;46.042;14.472;2023-08-06T04:37:53;96853.88;;;16.89;98.61
9822;BME280;4950;46.042;14.472;2023-08-06T04:40:20;96854.38;;;16.86;98.25
9822;BME280;4950;46.042;14.472;2023-08-06T04:42:47;96855.63;;;16.83;98.42
9822;BME280;4950;46.042;14.472;2023-08-06T04:45:15;96857.06;;;16.74;98.86
9822;BME280;4950;46.042;14.472;2023-08-06T04:47:42;96860.69;;;16.73;99.20
9822;BME280;4950;46.042;14.472;2023-08-06T04:50:09;96870.41;;;16.72;99.41
9822;BME280;4950;46.042;14.472;2023-08-06T04:52:37;96862.22;;;16.69;100.00
9822;BME280;4950;46.042;14.472;2023-08-06T04:55:04;96864.28;;;16.67;100.00
9822;BME280;4950;46.042;14.472;2023-08-06T04:57:31;96865.28;;;16.66;100.00
9822;BME280;4950;46.042;14.472;2023-08-06T04:59:58;96866.03;;;16.61;100.00
9822;BME280;4950;46.042;14.472;2023-08-06T05:02:26;96875.94;;;16.59;100.00
9822;BME280;4950;46.042;14.472;2023-08-06T05:04:53;96880.53;;;16.52;100.00
9822;BME280;4950;46.042;14.472;2023-08-06T05:07:20;96893.38;;;16.36;100.00
9822;BME280;4950;46.042;14.472;2023-08-06T05:09:46;96887.91;;;16.38;100.00
9822;BME280;4950;46.042;14.472;2023-08-06T05:12:13;96890.94;;;16.47;100.00
9822;BME280;4950;46.042;14.472;2023-08-06T05:14:40;96892.28;;;16.49;100.00
9822;BME280;4950;46.042;14.472;2023-08-06T05:17:07;96902.88;;;16.54;100.00
9822;BME280;4950;46.042;14.472;2023-08-06T05:19:35;96893.50;;;16.58;100.00
9822;BME280;4950;46.042;14.472;2023-08-06T05:22:02;96893.72;;;16.57;100.00
9822;BME280;4950;46.042;14.472;2023-08-06T05:24:28;96898.09;;;16.51;100.00
9822;BME280;4950;46.042;14.472;2023-08-06T05:26:55;96893.41;;;16.53;100.00
9822;BME280;4950;46.042;14.472;2023-08-06T05:29:22;96899.75;;;16.57;100.00
9822;BME280;4950;46.042;14.472;2023-08-06T05:31:49;96895.91;;;16.60;100.00
9822;BME280;4950;46.042;14.472;2023-08-06T05:34:15;96895.06;;;16.59;100.00
9822;BME280;4950;46.042;14.472;2023-08-06T05:36:44;96891.66;;;16.59;100.00
9822;BME280;4950;46.042;14.472;2023-08-06T05:39:10;96890.09;;;16.58;100.00
9822;BME280;4950;46.042;14.472;2023-08-06T05:41:39;96884.28;;;16.56;100.00
9822;BME280;4950;46.042;14.472;2023-08-06T05:44:06;96893.34;;;16.48;100.00
9822;BME280;4950;46.042;14.472;2023-08-06T05:46:32;96897.44;;;16.44;100.00
9822;BME280;4950;46.042;14.472;2023-08-06T05:48:59;96893.25;;;16.43;100.00
9822;BME280;4950;46.042;14.472;2023-08-06T05:51:27;96897.75;;;16.48;100.00
9822;BME280;4950;46.042;14.472;2023-08-06T05:53:55;96897.53;;;16.49;100.00
9822;BME280;4950;46.042;14.472;2023-08-06T05:56:22;96903.56;;;16.50;100.00
9822;BME280;4950;46.042;14.472;2023-08-06T05:58:48;96906.75;;;16.52;100.00
9822;BME280;4950;46.042;14.472;2023-08-06T06:01:18;96908.91;;;16.55;100.00
9822;BME280;4950;46.042;14.472;2023-08-06T06:03:45;96906.84;;;16.57;100.00
9822;BME280;4950;46.042;14.472;2023-08-06T06:06:11;96901.38;;;16.58;100.00
9822;BME280;4950;46.042;14.472;2023-08-06T06:08:38;96916.13;;;16.65;100.00
9822;BME280;4950;46.042;14.472;2023-08-06T06:11:06;96919.09;;;16.68;100.00
9822;BME280;4950;46.042;14.472;2023-08-06T06:13:33;96923.59;;;16.73;100.00
9822;BME280;4950;46.042;14.472;2023-08-06T06:16:00;96914.47;;;16.75;100.00
9822;BME280;4950;46.042;14.472;2023-08-06T06:18:27;96908.75;;;16.78;100.00
9822;BME280;4950;46.042;14.472;2023-08-06T06:20:56;96908.19;;;16.76;100.00
9822;BME280;4950;46.042;14.472;2023-08-06T06:23:23;96912.66;;;16.76;100.00
9822;BME280;4950;46.042;14.472;2023-08-06T06:25:50;96911.59;;;16.77;100.00
9822;BME280;4950;46.042;14.472;2023-08-06T06:28:19;96910.94;;;16.82;100.00
9822;BME280;4950;46.042;14.472;2023-08-06T06:30:46;96902.81;;;16.83;100.00
9822;BME280;4950;46.042;14.472;2023-08-06T06:33:13;96917.06;;;16.87;100.00
9822;BME280;4950;46.042;14.472;2023-08-06T06:35:39;96910.53;;;16.90;100.00
9822;BME280;4950;46.042;14.472;2023-08-06T06:38:06;96910.38;;;16.96;100.00
9822;BME280;4950;46.042;14.472;2023-08-06T06:40:33;96916.25;;;17.04;99.83
9822;BME280;4950;46.042;14.472;2023-08-06T06:43:00;96913.88;;;17.02;99.74
9822;BME280;4950;46.042;14.472;2023-08-06T06:45:28;96925.47;;;17.06;100.00
9822;BME280;4950;46.042;14.472;2023-08-06T06:47:55;96930.00;;;17.11;99.72
9822;BME280;4950;46.042;14.472;2023-08-06T06:50:21;96930.56;;;17.13;100.00
9822;BME280;4950;46.042;14.472;2023-08-06T06:52:48;96924.78;;;17.11;100.00
9822;BME280;4950;46.042;14.472;2023-08-06T06:55:15;96921.41;;;17.15;100.00
9822;BME280;4950;46.042;14.472;2023-08-06T06:57:42;96929.66;;;17.24;100.00
9822;BME280;4950;46.042;14.472;2023-08-06T07:00:09;96926.66;;;17.32;100.00
9822;BME280;4950;46.042;14.472;2023-08-06T07:02:38;96920.91;;;17.35;99.97
9822;BME280;4950;46.042;14.472;2023-08-06T07:05:05;96912.63;;;17.44;100.00
9822;BME280;4950;46.042;14.472;2023-08-06T07:07:32;96913.16;;;17.46;99.44
9822;BME280;4950;46.042;14.472;2023-08-06T07:09:59;96916.91;;;17.50;99.48
9822;BME280;4950;46.042;14.472;2023-08-06T07:12:26;96917.47;;;17.52;99.53
9822;BME280;4950;46.042;14.472;2023-08-06T07:14:53;96900.66;;;17.53;98.98
9822;BME280;4950;46.042;14.472;2023-08-06T07:17:19;96908.06;;;17.56;97.83
9822;BME280;4950;46.042;14.472;2023-08-06T07:19:48;96907.22;;;17.50;97.12
9822;BME280;4950;46.042;14.472;2023-08-06T07:22:14;96906.97;;;17.52;96.65
9822;BME280;4950;46.042;14.472;2023-08-06T07:24:41;96910.63;;;17.51;96.60
9822;BME280;4950;46.042;14.472;2023-08-06T07:27:08;96912.22;;;17.52;96.50
9822;BME280;4950;46.042;14.472;2023-08-06T07:29:35;96905.44;;;17.56;96.39
9822;BME280;4950;46.042;14.472;2023-08-06T07:32:01;96913.91;;;17.63;95.42
9822;BME280;4950;46.042;14.472;2023-08-06T07:34:28;96920.22;;;17.62;95.35
9822;BME280;4950;46.042;14.472;2023-08-06T07:36:56;96921.00;;;17.63;96.25
9822;BME280;4950;46.042;14.472;2023-08-06T07:39:23;96916.31;;;17.65;96.82
9822;BME280;4950;46.042;14.472;2023-08-06T07:41:50;96906.66;;;17.70;96.84
9822;BME280;4950;46.042;14.472;2023-08-06T07:44:16;96904.66;;;17.77;96.88
9822;BME280;4950;46.042;14.472;2023-08-06T07:46:43;96900.03;;;17.85;96.68
9822;BME280;4950;46.042;14.472;2023-08-06T07:49:10;96903.50;;;17.90;96.67
9822;BME280;4950;46.042;14.472;2023-08-06T07:51:37;96908.53;;;17.92;96.90
9822;BME280;4950;46.042;14.472;2023-08-06T07:54:06;96915.13;;;17.94;95.90
9822;BME280;4950;46.042;14.472;2023-08-06T07:56:32;96917.75;;;17.94;94.67
9822;BME280;4950;46.042;14.472;2023-08-06T07:59:01;96912.75;;;17.93;94.96
9822;BME280;4950;46.042;14.472;2023-08-06T08:01:28;96911.16;;;17.92;94.82
9822;BME280;4950;46.042;14.472;2023-08-06T08:03:54;96911.22;;;17.97;95.24
9822;BME280;4950;46.042;14.472;2023-08-06T08:06:21;96910.22;;;18.03;95.04
9822;BME280;4950;46.042;14.472;2023-08-06T08:08:48;96903.69;;;18.06;95.03
9822;BME280;4950;46.042;14.472;2023-08-06T08:11:16;96893.19;;;18.06;94.91
9822;BME280;4950;46.042;14.472;2023-08-06T08:13:43;96904.47;;;18.06;93.73
9822;BME280;4950;46.042;14.472;2023-08-06T08:16:10;96899.78;;;18.08;94.00
9822;BME280;4950;46.042;14.472;2023-08-06T08:18:37;96899.72;;;18.03;93.59
9822;BME280;4950;46.042;14.472;2023-08-06T08:21:04;96899.19;;;18.01;93.50
9822;BME280;4950;46.042;14.472;2023-08-06T08:23:31;96907.09;;;18.06;94.02
9822;BME280;4950;46.042;14.472;2023-08-06T08:25:58;96908.69;;;18.07;94.26
9822;BME280;4950;46.042;14.472;2023-08-06T08:28:26;96914.03;;;18.12;94.10
9822;BME280;4950;46.042;14.472;2023-08-06T08:30:53;96913.03;;;18.19;94.30
9822;BME280;4950;46.042;14.472;2023-08-06T08:33:21;96915.69;;;18.24;94.76
9822;BME280;4950;46.042;14.472;2023-08-06T08:35:48;96908.34;;;18.26;95.06
9822;BME280;4950;46.042;14.472;2023-08-06T08:38:15;96919.38;;;18.23;95.54
9822;BME280;4950;46.042;14.472;2023-08-06T08:40:46;96921.75;;;18.24;95.50
9822;BME280;4950;46.042;14.472;2023-08-06T08:43:13;96914.28;;;18.38;96.32
9822;BME280;4950;46.042;14.472;2023-08-06T08:45:42;96915.66;;;18.46;95.68
9822;BME280;4950;46.042;14.472;2023-08-06T08:48:11;96917.53;;;18.50;94.03
9822;BME280;4950;46.042;14.472;2023-08-06T08:50:39;96924.94;;;18.53;92.80
9822;BME280;4950;46.042;14.472;2023-08-06T08:53:06;96932.00;;;18.53;92.43
9822;BME280;4950;46.042;14.472;2023-08-06T08:55:34;96931.22;;;18.52;93.04
9822;BME280;4950;46.042;14.472;2023-08-06T08:58:02;96936.69;;;18.46;93.11
9822;BME280;4950;46.042;14.472;2023-08-06T09:00:29;96929.13;;;18.49;93.78
9822;BME280;4950;46.042;14.472;2023-08-06T09:02:58;96926.22;;;18.51;92.68
9822;BME280;4950;46.042;14.472;2023-08-06T09:05:27;96924.41;;;18.51;92.76
9822;BME280;4950;46.042;14.472;2023-08-06T09:08:02;96930.63;;;18.45;92.38
9822;BME280;4950;46.042;14.472;2023-08-06T09:10:29;96934.31;;;18.44;91.60
9822;BME280;4950;46.042;14.472;2023-08-06T09:12:57;96932.97;;;18.42;91.68
9822;BME280;4950;46.042;14.472;2023-08-06T09:15:24;96946.34;;;18.40;91.85
9822;BME280;4950;46.042;14.472;2023-08-06T09:17:52;96940.88;;;18.42;92.02
9822;BME280;4950;46.042;14.472;2023-08-06T09:20:20;96947.44;;;18.44;92.86
9822;BME280;4950;46.042;14.472;2023-08-06T09:22:47;96939.88;;;18.48;93.23
9822;BME280;4950;46.042;14.472;2023-08-06T09:25:21;96944.13;;;18.54;93.04
9822;BME280;4950;46.042;14.472;2023-08-06T09:27:49;96947.31;;;18.56;92.47
9822;BME280;4950;46.042;14.472;2023-08-06T09:30:29;96951.25;;;18.59;92.00
9822;BME280;4950;46.042;14.472;2023-08-06T09:32:57;96949.28;;;18.71;92.37
9822;BME280;4950;46.042;14.472;2023-08-06T09:35:28;96951.25;;;18.81;91.94
9822;BME280;4950;46.042;14.472;2023-08-06T09:37:55;96945.28;;;18.90;91.34
9822;BME280;4950;46.042;14.472;2023-08-06T09:40:26;96946.34;;;18.94;90.57
9822;BME280;4950;46.042;14.472;2023-08-06T09:42:54;96949.34;;;19.08;89.93
9822;BME280;4950;46.042;14.472;2023-08-06T09:45:20;96948.28;;;19.09;89.60
9822;BME280;4950;46.042;14.472;2023-08-06T09:47:48;96945.41;;;19.11;89.93
9822;BME280;4950;46.042;14.472;2023-08-06T09:50:17;96946.75;;;19.13;89.32
9822;BME280;4950;46.042;14.472;2023-08-06T09:52:46;96942.31;;;19.19;88.78
9822;BME280;4950;46.042;14.472;2023-08-06T09:55:14;96941.34;;;19.30;87.77
9822;BME280;4950;46.042;14.472;2023-08-06T09:57:41;96936.13;;;19.36;87.65
9822;BME280;4950;46.042;14.472;2023-08-06T10:00:10;96931.94;;;19.45;88.16
9822;BME280;4950;46.042;14.472;2023-08-06T10:02:37;96941.00;;;19.59;87.36
9822;BME280;4950;46.042;14.472;2023-08-06T10:05:05;96935.72;;;19.59;86.01
9822;BME280;4950;46.042;14.472;2023-08-06T10:07:32;96940.47;;;19.57;86.87
9822;BME280;4950;46.042;14.472;2023-08-06T10:10:01;96934.91;;;19.59;86.40
9822;BME280;4950;46.042;14.472;2023-08-06T10:12:32;96934.66;;;19.60;86.18
9822;BME280;4950;46.042;14.472;2023-08-06T10:15:03;96939.19;;;19.70;86.83
9822;BME280;4950;46.042;14.472;2023-08-06T10:17:31;96943.22;;;19.78;86.41
9822;BME280;4950;46.042;14.472;2023-08-06T10:20:00;96944.81;;;19.84;85.53
9822;BME280;4950;46.042;14.472;2023-08-06T10:22:27;96941.41;;;19.83;85.67
9822;BME280;4950;46.042;14.472;2023-08-06T10:24:54;96939.34;;;19.96;84.97
9822;BME280;4950;46.042;14.472;2023-08-06T10:27:28;96938.84;;;20.04;86.88
9822;BME280;4950;46.042;14.472;2023-08-06T10:29:55;96945.22;;;20.18;83.87
9822;BME280;4950;46.042;14.472;2023-08-06T10:32:49;96942.59;;;20.23;83.16
9822;BME280;4950;46.042;14.472;2023-08-06T10:35:29;96938.66;;;20.26;82.65
9822;BME280;4950;46.042;14.472;2023-08-06T10:38:02;96944.97;;;20.25;81.37
9822;BME280;4950;46.042;14.472;2023-08-06T10:40:31;96956.56;;;20.24;81.48
9822;BME280;4950;46.042;14.472;2023-08-06T10:43:03;96961.03;;;20.18;80.47
9822;BME280;4950;46.042;14.472;2023-08-06T10:45:34;96971.84;;;20.22;80.89
9822;BME280;4950;46.042;14.472;2023-08-06T10:48:01;96978.19;;;20.26;80.91
9822;BME280;4950;46.042;14.472;2023-08-06T10:50:28;96981.38;;;20.28;81.37
9822;BME280;4950;46.042;14.472;2023-08-06T10:52:57;96977.41;;;20.30;82.90
9822;BME280;4950;46.042;14.472;2023-08-06T10:55:25;96979.78;;;20.32;83.31
9822;BME280;4950;46.042;14.472;2023-08-06T10:57:52;96985.56;;;20.29;84.81
9822;BME280;4950;46.042;14.472;2023-08-06T11:00:22;96984.25;;;20.26;84.81
9822;BME280;4950;46.042;14.472;2023-08-06T11:02:50;96980.81;;;20.21;84.45
9822;BME280;4950;46.042;14.472;2023-08-06T11:05:18;96972.34;;;20.14;82.05
9822;BME280;4950;46.042;14.472;2023-08-06T11:07:45;96971.25;;;20.04;78.65
9822;BME280;4950;46.042;14.472;2023-08-06T11:10:13;96975.72;;;19.99;77.60
9822;BME280;4950;46.042;14.472;2023-08-06T11:12:40;96977.50;;;19.88;75.51
9822;BME280;4950;46.042;14.472;2023-08-06T11:15:09;96967.56;;;19.58;74.57
9822;BME280;4950;46.042;14.472;2023-08-06T11:17:40;96951.41;;;19.39;76.42
9822;BME280;4950;46.042;14.472;2023-08-06T11:20:08;96954.50;;;19.30;76.39
9822;BME280;4950;46.042;14.472;2023-08-06T11:22:36;96970.47;;;19.19;76.57
9822;BME280;4950;46.042;14.472;2023-08-06T11:25:05;96974.78;;;18.98;72.32
9822;BME280;4950;46.042;14.472;2023-08-06T11:27:32;96962.97;;;19.00;74.86
9822;BME280;4950;46.042;14.472;2023-08-06T11:29:59;96962.72;;;19.02;76.28
9822;BME280;4950;46.042;14.472;2023-08-06T11:32:25;96949.53;;;18.97;78.09
9822;BME280;4950;46.042;14.472;2023-08-06T11:34:55;96931.97;;;18.75;78.87
9822;BME280;4950;46.042;14.472;2023-08-06T11:37:23;96939.72;;;18.60;78.02
9822;BME280;4950;46.042;14.472;2023-08-06T11:39:52;96946.25;;;18.30;78.86
9822;BME280;4950;46.042;14.472;2023-08-06T11:42:19;96948.44;;;18.16;80.59
9822;BME280;4950;46.042;14.472;2023-08-06T11:44:46;96943.75;;;17.96;79.14
9822;BME280;4950;46.042;14.472;2023-08-06T11:47:15;96948.75;;;17.75;80.14
9822;BME280;4950;46.042;14.472;2023-08-06T11:49:44;96947.75;;;17.60;81.89
9822;BME280;4950;46.042;14.472;2023-08-06T11:52:17;96948.16;;;17.51;83.13
9822;BME280;4950;46.042;14.472;2023-08-06T11:54:46;96947.28;;;17.46;83.98
9822;BME280;4950;46.042;14.472;2023-08-06T11:57:13;96942.94;;;17.34;85.26
9822;BME280;4950;46.042;14.472;2023-08-06T11:59:41;96951.84;;;17.33;84.96
9822;BME280;4950;46.042;14.472;2023-08-06T12:02:10;96966.56;;;17.34;83.84
9822;BME280;4950;46.042;14.472;2023-08-06T12:04:58;96989.63;;;17.32;85.18
9822;BME280;4950;46.042;14.472;2023-08-06T12:07:28;97004.25;;;17.28;85.77
9822;BME280;4950;46.042;14.472;2023-08-06T12:09:55;97014.78;;;17.16;86.83
9822;BME280;4950;46.042;14.472;2023-08-06T12:12:23;97005.81;;;17.12;86.78
9822;BME280;4950;46.042;14.472;2023-08-06T12:14:49;97011.06;;;17.12;86.36
9822;BME280;4950;46.042;14.472;2023-08-06T12:17:16;97010.59;;;17.15;85.57
9822;BME280;4950;46.042;14.472;2023-08-06T12:19:44;97014.00;;;17.16;84.58
9822;BME280;4950;46.042;14.472;2023-08-06T12:22:11;97022.66;;;17.16;84.84
9822;BME280;4950;46.042;14.472;2023-08-06T12:24:40;97017.28;;;17.23;85.59
9822;BME280;4950;46.042;14.472;2023-08-06T12:27:07;97021.09;;;17.32;85.37
9822;BME280;4950;46.042;14.472;2023-08-06T12:29:34;97024.00;;;17.36;85.68
9822;BME280;4950;46.042;14.472;2023-08-06T12:32:01;97040.91;;;17.40;85.93
9822;BME280;4950;46.042;14.472;2023-08-06T12:34:28;97051.13;;;17.42;86.41
9822;BME280;4950;46.042;14.472;2023-08-06T12:36:54;97078.41;;;17.41;86.71
9822;BME280;4950;46.042;14.472;2023-08-06T12:39:21;97125.06;;;17.22;85.46
9822;BME280;4950;46.042;14.472;2023-08-06T12:41:49;97129.72;;;16.91;83.54
9822;BME280;4950;46.042;14.472;2023-08-06T12:44:16;97121.69;;;16.69;82.58
9822;BME280;4950;46.042;14.472;2023-08-06T12:46:43;97123.06;;;16.59;81.29
9822;BME280;4950;46.042;14.472;2023-08-06T12:49:10;97116.47;;;16.57;81.76
9822;BME280;4950;46.042;14.472;2023-08-06T12:51:36;97110.88;;;16.53;81.54
9822;BME280;4950;46.042;14.472;2023-08-06T12:54:04;97108.28;;;16.42;81.28
9822;BME280;4950;46.042;14.472;2023-08-06T12:56:30;97117.06;;;16.35;81.23
9822;BME280;4950;46.042;14.472;2023-08-06T12:58:58;97111.41;;;16.27;80.60
9822;BME280;4950;46.042;14.472;2023-08-06T13:01:25;97126.22;;;16.21;81.85
9822;BME280;4950;46.042;14.472;2023-08-06T13:03:52;97107.75;;;16.04;81.65
9822;BME280;4950;46.042;14.472;2023-08-06T13:06:19;97107.41;;;16.01;82.13
9822;BME280;4950;46.042;14.472;2023-08-06T13:08:45;97086.59;;;16.06;82.45
9822;BME280;4950;46.042;14.472;2023-08-06T13:11:13;97060.28;;;16.12;82.41